createdAt,value
2023-02-19T00:00:23.075Z,26.14
2023-02-19T00:02:51.906Z,26.14
2023-02-19T00:05:19.715Z,26.13
2023-02-19T00:07:47.495Z,26.13
2023-02-19T00:10:15.220Z,26.12
2023-02-19T00:12:42.976Z,26.13
2023-02-19T00:15:10.749Z,26.13
2023-02-19T00:17:38.512Z,26.13
2023-02-19T00:20:06.342Z,26.12
2023-02-19T00:22:34.084Z,26.13
2023-02-19T00:25:01.851Z,26.14
2023-02-19T00:27:29.680Z,26.16
2023-02-19T00:29:57.407Z,26.18
2023-02-19T00:32:25.268Z,26.19
2023-02-19T00:34:55.369Z,26.20
2023-02-19T00:37:23.130Z,26.21
2023-02-19T00:39:50.973Z,26.21
2023-02-19T00:42:18.765Z,26.20
2023-02-19T00:44:46.546Z,26.21
2023-02-19T00:47:14.324Z,26.20
2023-02-19T00:49:42.080Z,26.20
2023-02-19T00:52:09.866Z,26.20
2023-02-19T00:54:37.597Z,26.21
2023-02-19T00:57:07.392Z,26.22
2023-02-19T00:59:38.233Z,26.22
2023-02-19T01:02:05.954Z,26.23
2023-02-19T01:04:33.769Z,26.23
2023-02-19T01:07:01.678Z,26.23
2023-02-19T01:09:29.410Z,26.24
2023-02-19T01:11:57.262Z,26.26
2023-02-19T01:14:25.035Z,26.26
2023-02-19T01:16:52.941Z,26.28
2023-02-19T01:19:20.769Z,26.29
2023-02-19T01:21:48.549Z,26.30
2023-02-19T01:24:17.642Z,26.32
2023-02-19T01:26:45.677Z,26.33
2023-02-19T01:29:13.450Z,26.32
2023-02-19T01:31:43.080Z,26.32
2023-02-19T01:34:10.922Z,26.33
2023-02-19T01:36:38.844Z,26.33
2023-02-19T01:39:06.686Z,26.33
2023-02-19T01:41:34.576Z,26.34
2023-02-19T01:44:02.453Z,26.33
2023-02-19T01:46:30.322Z,26.34
2023-02-19T01:48:58.319Z,26.34
2023-02-19T01:51:29.165Z,26.33
2023-02-19T01:53:59.858Z,26.33
2023-02-19T01:56:29.378Z,26.32
2023-02-19T01:58:57.234Z,26.35
2023-02-19T02:01:25.069Z,26.35
2023-02-19T02:03:53.140Z,26.35
2023-02-19T02:06:20.876Z,26.35
2023-02-19T02:09:07.049Z,26.37
2023-02-19T02:11:34.804Z,26.36
2023-02-19T02:14:02.547Z,26.36
2023-02-19T02:16:30.410Z,26.37
2023-02-19T02:18:58.264Z,26.38
2023-02-19T02:21:26.019Z,26.38
2023-02-19T02:23:53.867Z,26.38
2023-02-19T02:26:21.626Z,26.39
2023-02-19T02:28:49.461Z,26.39
2023-02-19T02:31:17.448Z,26.37
2023-02-19T02:33:45.278Z,26.37
2023-02-19T02:36:13.084Z,26.36
2023-02-19T02:38:40.982Z,26.35
2023-02-19T02:41:09.118Z,26.33
2023-02-19T02:43:37.118Z,26.33
2023-02-19T02:46:04.906Z,26.32
2023-02-19T02:48:32.686Z,26.31
2023-02-19T02:51:00.416Z,26.30
2023-02-19T02:53:46.739Z,26.30
2023-02-19T02:56:14.518Z,26.30
2023-02-19T02:58:42.345Z,26.31
2023-02-19T03:01:28.642Z,26.31
2023-02-19T03:03:56.404Z,26.31
2023-02-19T03:06:24.163Z,26.31
2023-02-19T03:08:54.372Z,26.31
2023-02-19T03:11:45.000Z,26.31
2023-02-19T03:14:30.893Z,26.30
2023-02-19T03:17:16.949Z,26.28
2023-02-19T03:19:44.833Z,26.29
2023-02-19T03:22:12.689Z,26.27
2023-02-19T03:24:58.914Z,26.26
2023-02-19T03:27:26.677Z,26.26
2023-02-19T03:29:54.399Z,26.23
2023-02-19T03:32:22.239Z,26.22
2023-02-19T03:34:52.611Z,26.21
2023-02-19T03:37:22.709Z,26.19
2023-02-19T03:39:50.527Z,26.20
2023-02-19T03:42:18.263Z,26.18
2023-02-19T03:44:46.058Z,26.17
2023-02-19T03:47:13.897Z,26.16
2023-02-19T03:49:41.661Z,26.15
2023-02-19T03:52:09.425Z,26.14
2023-02-19T03:54:37.504Z,26.13
2023-02-19T03:57:05.283Z,26.12
2023-02-19T03:59:33.097Z,26.10
2023-02-19T04:02:00.973Z,26.08
2023-02-19T04:04:28.893Z,26.06
2023-02-19T04:06:56.731Z,26.04
2023-02-19T04:09:24.520Z,26.04
2023-02-19T04:11:52.464Z,26.02
2023-02-19T04:14:29.052Z,26.01
2023-02-19T04:16:56.860Z,26.00
2023-02-19T04:19:24.702Z,25.99
2023-02-19T04:21:52.586Z,25.98
2023-02-19T04:24:20.356Z,25.98
2023-02-19T04:26:48.160Z,25.97
2023-02-19T04:29:15.887Z,25.97
2023-02-19T04:31:43.677Z,25.97
2023-02-19T04:34:11.440Z,25.98
2023-02-19T04:36:39.136Z,25.98
2023-02-19T04:39:19.054Z,25.99
2023-02-19T04:41:46.831Z,26.00
2023-02-19T04:44:14.629Z,25.99
2023-02-19T04:46:43.204Z,26.01
2023-02-19T04:49:11.072Z,26.01
2023-02-19T04:51:38.984Z,26.01
2023-02-19T04:54:06.738Z,26.00
2023-02-19T04:56:34.574Z,26.00
2023-02-19T04:59:02.385Z,25.98
2023-02-19T05:01:30.215Z,25.98
2023-02-19T05:03:57.959Z,25.97
2023-02-19T05:06:25.688Z,25.96
2023-02-19T05:08:53.473Z,25.96
2023-02-19T05:11:21.330Z,25.97
2023-02-19T05:13:49.077Z,25.96
2023-02-19T05:16:19.528Z,25.95
2023-02-19T05:18:47.669Z,25.95
2023-02-19T05:21:15.444Z,25.94
2023-02-19T05:23:43.241Z,25.95
2023-02-19T05:26:11.005Z,25.94
2023-02-19T05:28:38.758Z,25.94
2023-02-19T05:31:06.713Z,25.94
2023-02-19T05:33:34.502Z,25.94
2023-02-19T05:36:03.931Z,25.94
2023-02-19T05:38:31.719Z,25.94
2023-02-19T05:41:01.258Z,25.92
2023-02-19T05:43:29.057Z,25.92
2023-02-19T05:45:56.836Z,25.91
2023-02-19T05:48:24.598Z,25.91
2023-02-19T05:50:52.359Z,25.91
2023-02-19T05:53:20.141Z,25.91
2023-02-19T05:55:47.903Z,25.90
2023-02-19T05:58:15.680Z,25.90
2023-02-19T06:00:43.453Z,25.91
2023-02-19T06:03:11.255Z,25.90
2023-02-19T06:05:39.014Z,25.91
2023-02-19T06:08:06.814Z,25.81
2023-02-19T06:10:34.576Z,25.89
2023-02-19T06:13:02.347Z,25.89
2023-02-19T06:15:30.179Z,25.89
2023-02-19T06:17:58.006Z,25.89
2023-02-19T06:20:26.378Z,25.88
2023-02-19T06:22:54.254Z,25.87
2023-02-19T06:25:22.006Z,25.87
2023-02-19T06:27:49.792Z,25.86
2023-02-19T06:30:17.651Z,25.86
2023-02-19T06:32:45.482Z,25.85
2023-02-19T06:35:13.244Z,25.85
2023-02-19T06:37:41.062Z,25.84
2023-02-19T06:40:09.102Z,25.84
2023-02-19T06:42:36.847Z,25.85
2023-02-19T06:45:04.604Z,25.84
2023-02-19T06:47:32.399Z,25.84
2023-02-19T06:50:00.174Z,25.84
2023-02-19T06:52:28.018Z,25.83
2023-02-19T06:54:55.873Z,25.83
2023-02-19T06:57:23.657Z,25.82
2023-02-19T06:59:51.523Z,25.33
2023-02-19T07:02:19.305Z,25.81
2023-02-19T07:04:47.107Z,25.80
2023-02-19T07:07:14.921Z,25.81
2023-02-19T07:09:42.698Z,25.80
2023-02-19T07:12:11.138Z,25.80
2023-02-19T07:14:38.938Z,25.80
2023-02-19T07:17:06.651Z,25.80
2023-02-19T07:19:34.371Z,25.80
2023-02-19T07:22:02.293Z,25.80
2023-02-19T07:24:30.060Z,25.80
2023-02-19T07:26:57.843Z,25.82
2023-02-19T07:29:25.708Z,25.80
2023-02-19T07:31:53.572Z,25.80
2023-02-19T07:34:21.826Z,25.78
2023-02-19T07:36:49.621Z,25.77
2023-02-19T07:39:17.385Z,25.77
2023-02-19T07:41:45.152Z,25.76
2023-02-19T07:44:17.431Z,25.76
2023-02-19T07:46:45.252Z,25.74
2023-02-19T07:51:46.110Z,25.74
2023-02-19T07:54:14.581Z,25.74
2023-02-19T07:56:42.473Z,25.73
2023-02-19T07:59:10.440Z,25.71
2023-02-19T08:01:56.610Z,25.70
2023-02-19T08:04:24.461Z,25.68
2023-02-19T08:06:52.238Z,25.65
2023-02-19T08:09:20.038Z,25.64
2023-02-19T08:12:06.476Z,25.61
2023-02-19T08:14:34.302Z,25.60
2023-02-19T08:17:02.143Z,25.58
2023-02-19T08:19:30.014Z,25.58
2023-02-19T08:21:57.818Z,25.56
2023-02-19T08:24:25.654Z,25.55
2023-02-19T08:26:53.586Z,25.54
2023-02-19T08:29:21.379Z,25.54
2023-02-19T08:31:49.232Z,25.52
2023-02-19T08:34:17.054Z,25.52
2023-02-19T08:36:45.218Z,25.52
2023-02-19T08:39:12.941Z,25.52
2023-02-19T08:41:40.677Z,25.52
2023-02-19T08:44:10.900Z,25.52
2023-02-19T08:46:38.669Z,25.52
2023-02-19T08:49:06.534Z,25.51
2023-02-19T08:51:34.297Z,25.51
2023-02-19T08:54:02.017Z,25.51
2023-02-19T08:56:32.830Z,25.51
2023-02-19T08:59:00.642Z,25.50
2023-02-19T09:01:28.573Z,25.49
2023-02-19T09:03:56.532Z,25.49
2023-02-19T09:06:24.338Z,25.49
2023-02-19T09:08:52.126Z,25.47
2023-02-19T09:11:20.007Z,25.46
2023-02-19T09:13:47.791Z,25.44
2023-02-19T09:16:15.582Z,25.42
2023-02-19T09:18:43.373Z,25.43
2023-02-19T09:21:11.443Z,25.41
2023-02-19T09:23:39.388Z,25.40
2023-02-19T09:26:09.572Z,25.40
2023-02-19T09:28:37.391Z,25.39
2023-02-19T09:31:05.331Z,25.39
2023-02-19T09:33:33.437Z,25.37
2023-02-19T09:36:01.814Z,25.37
2023-02-19T09:38:30.415Z,25.38
2023-02-19T09:40:58.237Z,25.36
2023-02-19T09:43:26.048Z,25.37
2023-02-19T09:45:53.914Z,25.38
2023-02-19T09:48:25.593Z,25.40
2023-02-19T09:50:53.342Z,25.39
2023-02-19T09:53:21.112Z,25.40
2023-02-19T09:55:48.906Z,25.40
2023-02-19T09:58:16.719Z,25.40
2023-02-19T10:00:44.572Z,25.39
2023-02-19T10:03:12.299Z,25.40
2023-02-19T10:05:40.098Z,25.40
2023-02-19T10:08:07.897Z,25.38
2023-02-19T10:10:35.643Z,25.39
2023-02-19T10:13:03.420Z,25.39
2023-02-19T10:15:31.372Z,25.38
2023-02-19T10:17:59.177Z,25.39
2023-02-19T10:20:28.816Z,25.36
2023-02-19T10:22:56.894Z,25.36
2023-02-19T10:25:24.679Z,25.36
2023-02-19T10:27:52.493Z,25.34
2023-02-19T10:30:20.316Z,25.33
2023-02-19T10:32:48.164Z,25.33
2023-02-19T10:35:15.975Z,25.32
2023-02-19T10:37:43.803Z,25.31
2023-02-19T10:40:11.532Z,25.31
2023-02-19T10:42:39.337Z,25.32
2023-02-19T10:45:07.148Z,25.31
2023-02-19T10:47:35.726Z,25.31
2023-02-19T10:50:04.690Z,25.31
2023-02-19T10:52:32.743Z,25.31
2023-02-19T10:55:00.477Z,25.30
2023-02-19T10:57:31.397Z,25.29
2023-02-19T10:59:59.240Z,25.31
2023-02-19T11:02:27.031Z,25.32
2023-02-19T11:04:54.817Z,25.34
2023-02-19T11:07:22.664Z,25.34
2023-02-19T11:09:50.438Z,25.34
2023-02-19T11:12:18.222Z,25.35
2023-02-19T11:14:46.096Z,25.34
2023-02-19T11:17:13.836Z,25.34
2023-02-19T11:19:41.630Z,25.32
2023-02-19T11:22:09.405Z,25.33
2023-02-19T11:24:38.342Z,25.34
2023-02-19T11:27:06.179Z,25.34
2023-02-19T11:29:37.291Z,25.33
2023-02-19T11:32:05.261Z,25.32
2023-02-19T11:34:35.884Z,25.31
2023-02-19T11:37:03.625Z,25.31
2023-02-19T11:39:31.362Z,25.30
2023-02-19T11:41:59.191Z,25.31
2023-02-19T11:44:31.176Z,25.30
2023-02-19T11:46:58.965Z,25.31
2023-02-19T11:49:26.901Z,25.32
2023-02-19T11:51:54.756Z,25.31
2023-02-19T11:54:22.579Z,25.32
2023-02-19T11:56:50.375Z,25.32
2023-02-19T11:59:18.171Z,25.32
2023-02-19T12:01:45.983Z,25.32
2023-02-19T12:04:13.763Z,25.32
2023-02-19T12:06:41.566Z,25.32
2023-02-19T12:09:09.627Z,25.34
2023-02-19T12:11:37.414Z,25.32
2023-02-19T12:14:05.172Z,25.33
2023-02-19T12:16:32.956Z,25.33
2023-02-19T12:19:03.857Z,25.34
2023-02-19T12:21:31.673Z,25.35
2023-02-19T12:24:02.317Z,25.34
2023-02-19T12:26:30.085Z,25.33
2023-02-19T12:28:57.933Z,25.33
2023-02-19T12:31:28.738Z,25.32
2023-02-19T12:33:57.787Z,25.30
2023-02-19T12:36:25.528Z,25.31
2023-02-19T12:38:53.291Z,25.30
2023-02-19T12:41:21.044Z,25.30
2023-02-19T12:43:48.888Z,25.31
2023-02-19T12:46:16.732Z,25.30
2023-02-19T12:48:44.649Z,25.32
2023-02-19T12:51:12.453Z,25.32
2023-02-19T12:53:40.293Z,25.34
2023-02-19T12:56:08.040Z,25.35
2023-02-19T12:58:35.823Z,25.36
2023-02-19T13:01:03.579Z,25.36
2023-02-19T13:03:31.374Z,25.37
2023-02-19T13:05:59.744Z,25.38
2023-02-19T13:08:27.516Z,25.38
2023-02-19T13:10:55.382Z,25.36
2023-02-19T13:13:24.044Z,25.39
2023-02-19T13:15:52.647Z,25.39
2023-02-19T13:18:20.451Z,25.39
2023-02-19T13:20:48.891Z,25.39
2023-02-19T13:23:38.350Z,25.40
2023-02-19T13:26:06.094Z,25.41
2023-02-19T13:28:33.839Z,25.42
2023-02-19T13:31:01.694Z,25.43
2023-02-19T13:33:29.628Z,25.44
2023-02-19T13:35:57.433Z,25.45
2023-02-19T13:38:25.246Z,25.46
2023-02-19T13:40:53.040Z,25.46
2023-02-19T13:43:21.091Z,25.48
2023-02-19T13:45:48.976Z,25.47
2023-02-19T13:48:16.817Z,25.46
2023-02-19T13:50:44.666Z,25.47
2023-02-19T13:53:12.525Z,25.45
2023-02-19T13:55:41.572Z,25.45
2023-02-19T13:58:09.360Z,25.46
2023-02-19T14:00:37.160Z,25.45
2023-02-19T14:03:04.958Z,25.46
2023-02-19T14:05:32.895Z,25.46
2023-02-19T14:08:00.700Z,25.45
2023-02-19T14:10:28.718Z,25.45
2023-02-19T14:12:56.519Z,25.45
2023-02-19T14:15:24.408Z,25.44
2023-02-19T14:17:52.141Z,25.46
2023-02-19T14:20:19.901Z,25.47
2023-02-19T14:22:48.883Z,25.47
2023-02-19T14:25:16.673Z,25.50
2023-02-19T14:27:44.483Z,25.50
2023-02-19T14:30:12.325Z,25.51
2023-02-19T14:32:40.151Z,25.52
2023-02-19T14:35:07.927Z,25.52
2023-02-19T14:37:35.732Z,25.53
2023-02-19T14:40:03.502Z,25.54
2023-02-19T14:42:35.012Z,25.54
2023-02-19T14:45:02.856Z,25.55
2023-02-19T14:47:31.860Z,25.56
2023-02-19T14:49:59.670Z,25.56
2023-02-19T14:52:27.618Z,25.56
2023-02-19T14:54:55.375Z,25.57
2023-02-19T14:57:23.301Z,25.56
2023-02-19T14:59:51.064Z,25.56
2023-02-19T15:02:18.886Z,25.55
2023-02-19T15:04:46.820Z,25.55
2023-02-19T15:07:14.691Z,25.57
2023-02-19T15:09:42.486Z,25.58
2023-02-19T15:12:10.281Z,25.56
2023-02-19T15:14:38.183Z,25.59
2023-02-19T15:17:05.951Z,25.58
2023-02-19T15:19:34.102Z,25.59
2023-02-19T15:22:02.918Z,25.60
2023-02-19T15:24:30.789Z,25.60
2023-02-19T15:26:58.660Z,25.61
2023-02-19T15:29:26.446Z,25.62
2023-02-19T15:31:54.325Z,25.61
2023-02-19T15:34:22.107Z,25.61
2023-02-19T15:36:49.930Z,25.60
2023-02-19T15:39:17.698Z,25.59
2023-02-19T15:41:45.769Z,25.58
2023-02-19T15:44:13.535Z,25.59
2023-02-19T15:46:41.410Z,25.56
2023-02-19T15:49:09.174Z,25.56
2023-02-19T15:51:36.996Z,25.56
2023-02-19T15:54:05.137Z,25.55
2023-02-19T15:56:32.936Z,25.54
2023-02-19T15:59:00.727Z,25.52
2023-02-19T16:01:28.599Z,25.50
2023-02-19T16:03:56.452Z,25.49
2023-02-19T16:06:24.261Z,25.49
2023-02-19T16:08:52.121Z,25.48
2023-02-19T16:11:19.896Z,25.48
2023-02-19T16:13:47.720Z,25.47
2023-02-19T16:16:15.560Z,25.46
2023-02-19T16:18:43.344Z,25.46
2023-02-19T16:21:11.540Z,25.45
2023-02-19T16:23:39.520Z,25.45
2023-02-19T16:26:07.305Z,25.47
2023-02-19T16:28:35.116Z,25.47
2023-02-19T16:31:02.908Z,25.47
2023-02-19T16:33:32.828Z,25.48
2023-02-19T16:39:02.825Z,25.49
2023-02-19T16:41:30.577Z,25.49
2023-02-19T16:43:58.428Z,25.49
2023-02-19T16:46:26.287Z,25.51
2023-02-19T16:48:54.022Z,25.52
2023-02-19T16:51:21.827Z,25.53
2023-02-19T16:53:49.605Z,25.53
2023-02-19T16:56:17.491Z,25.56
2023-02-19T16:58:45.340Z,25.57
2023-02-19T17:01:13.471Z,25.58
2023-02-19T17:03:41.522Z,25.58
2023-02-19T17:06:09.328Z,25.57
2023-02-19T17:08:38.063Z,25.58
2023-02-19T17:11:05.873Z,25.56
2023-02-19T17:13:33.637Z,25.56
2023-02-19T17:16:01.546Z,25.54
2023-02-19T17:18:29.302Z,25.54
2023-02-19T17:20:57.261Z,25.53
2023-02-19T17:23:25.087Z,25.55
2023-02-19T17:25:52.898Z,25.55
2023-02-19T17:28:20.708Z,25.55
2023-02-19T17:30:48.586Z,25.55
2023-02-19T17:33:16.444Z,25.55
2023-02-19T17:35:45.774Z,25.55
2023-02-19T17:38:13.574Z,25.56
2023-02-19T17:40:41.346Z,25.56
2023-02-19T17:43:09.190Z,25.56
2023-02-19T17:45:37.115Z,25.56
2023-02-19T17:48:04.927Z,25.56
2023-02-19T17:50:32.808Z,25.56
2023-02-19T17:53:00.616Z,25.56
2023-02-19T17:55:28.420Z,25.57
2023-02-19T17:57:56.301Z,25.58
2023-02-19T18:00:24.115Z,25.59
2023-02-19T18:02:51.896Z,25.45
2023-02-19T18:05:19.698Z,25.62
2023-02-19T18:07:47.522Z,25.62
2023-02-19T18:10:15.342Z,25.64
2023-02-19T18:12:43.077Z,25.65
2023-02-19T18:15:10.931Z,25.66
2023-02-19T18:17:38.763Z,25.68
2023-02-19T18:20:06.495Z,25.68
2023-02-19T18:22:34.680Z,25.68
2023-02-19T18:25:02.455Z,25.68
2023-02-19T18:27:30.228Z,25.66
2023-02-19T18:29:58.698Z,25.65
2023-02-19T18:32:26.466Z,25.65
2023-02-19T18:34:54.293Z,25.63
2023-02-19T18:37:22.070Z,25.63
2023-02-19T18:39:49.843Z,25.62
2023-02-19T18:42:17.601Z,25.61
2023-02-19T18:44:45.373Z,25.61
2023-02-19T18:47:13.176Z,25.60
2023-02-19T18:49:40.936Z,25.59
2023-02-19T18:52:08.802Z,25.60
2023-02-19T18:54:36.651Z,25.60
